Mojave, CA

12:43 PM PST on December 07, 2016 (GMT -0800)
APRSWXNET | | Change Station

Elev 2870 ft 35.07 °N, 118.18 °W | Updated 37 minutes ago

Clear
Clear
50 °F
Feels Like 50 °F
N
3
Wind Variable Wind from NE
Gusts 11.0 mph

Today
High -- | Low -- °F
--% Chance of Precip.
Yesterday
High -- | Low -- °F
Precip. -- in
Pressure 30.12 in
Visibility 10.0 miles
Clouds Clear
Dew Point 21 °F
Humidity 31%
Rainfall in
Snow Depth Not available.
6:47 AM 4:40 PM
First Quarter, 55% visible
METAR KMHV 072020Z AUTO 08007KT 10SM CLR 10/M08 A3012 RMK A01
Pressure 30.12 in
Visibility 10.0 miles
Clouds Clear
Dew Point 21 °F
Humidity 31%
Rainfall in
Snow Depth Not available.
6:47 AM 4:40 PM
First Quarter, 55% visible
METAR KMHV 072020Z AUTO 08007KT 10SM CLR 10/M08 A3012 RMK A01

10-Day Weather Forecast

Almanac

Astronomy

Dec. 07, 2016 Rise Set
Actual Time
Civil Twilight
Nautical Twilight
Astronomical Twilight
Moon
Length of Visible Light
Length of Day
Tomorrow will be .
, % of the Moon is Illuminated

Today's Extremes

State Highs State Lows

Community

WunderPhotos

Upload Photos

1,956,170 photos uploaded!

WunderBlog® & News

Nearby

Air Quality

  Air Quality AQ Index Pollutant
Not available.

Snow Depth

Station Depth Elevation

Earthquake Activity

City Distance Mag. Time & Date
Minimum magnitude displayed is 2.5.

Coastal Water Temperatures

Place Temperature

Stations

Nearby Weather Stations

Station Location Temp. Windchill Dew Point Humidity Wind Precip. Elev Updated Type
                   

Watches & Warnings

There are currently no watches in effect.